Snow/Ice From: 16-12-2017 16:00 Until: 17-12-2017 16:00 warning for: Snow/Ice Level: Yellow info button

Although rather usual in this region, locally or potentially dangerous phenomena are expected. (such as local winds, summer thunderstorms, rising streams or high waves) Be aware and pay attention to the latest weather updates, especially if you carry out activities exposed to weather or close to a stream or shoreline. 


Meteo18 Weather Cam more information Meteo18 Weather Cam


Thunder radar more information blitzortung!


warning for Snow/Ice more information rain snow radar


Visit our other weather sites:

Template documentation
and downloads

And another site



Weather Underground History page Text

Daily Summary for April 13, 2017 Units:  Both    English   Metric
« Previous Day
Next Day »
Daily Weekly Monthly Yearly Custom
  High: Low: Average:
Temperature: 63.7 °F /  17.6 °C 42.4 °F /  5.8 °C 53.1 °F /  11.7 °C
Dew Point: 49.1 °F /  9.5 °C 40.5 °F /  4.7 °C 44.4 °F /  6.9 °C
Humidity: 93 % 57 % 73 %
Wind Speed: 8 mph /  12.9 km/h - 1.9 mph /  3 km/h
Wind Gust: 13 mph /  20.9 km/h - -
Wind:- - SSW
Pressure: 30.1 in /  1020.5 hPa 30.1 in /  1017.5 hPa -
Precipitation: 0 in /  0.0 mm    
Historical Graphs
 
 
Tabular Data for April 13, 2017
Time Temperature Dew Point Pressure Wind Wind Speed Wind Gust Humidity Rainfall Rate (Hourly)
00:02 53.4 °F /  11.9 °C 42.3 °F /  5.7 °C 30.1 in /  1019.5 hPa WNW 1 mph /  1.6 km/h 4 mph /  6.4 km/h 66 % 0 in /  0.0 mm
00:12 53.6 °F /  12.0 °C 42.4 °F /  5.8 °C 30.1 in /  1019.5 hPa WNW 1 mph /  1.6 km/h 4 mph /  6.4 km/h 66 % 0 in /  0.0 mm
00:17 54 °F /  12.2 °C 42.8 °F /  6.0 °C 30.1 in /  1019.5 hPa WNW 1 mph /  1.6 km/h 4 mph /  6.4 km/h 66 % 0 in /  0.0 mm
00:22 54 °F /  12.2 °C 42.8 °F /  6.0 °C 30.1 in /  1019.5 hPa WNW 3 mph /  4.8 km/h 6 mph /  9.7 km/h 66 % 0 in /  0.0 mm
00:27 54.1 °F /  12.3 °C 43 °F /  6.1 °C 30.1 in /  1019.5 hPa WNW 3 mph /  4.8 km/h 8 mph /  12.9 km/h 66 % 0 in /  0.0 mm
00:32 54.1 °F /  12.3 °C 43 °F /  6.1 °C 30.1 in /  1019.5 hPa WNW 4 mph /  6.4 km/h 8 mph /  12.9 km/h 66 % 0 in /  0.0 mm
00:37 54 °F /  12.2 °C 42.8 °F /  6.0 °C 30.1 in /  1019.5 hPa NW 4 mph /  6.4 km/h 8 mph /  12.9 km/h 66 % 0 in /  0.0 mm
00:42 53.8 °F /  12.1 °C 43.2 °F /  6.2 °C 30.1 in /  1019.5 hPa WNW 4 mph /  6.4 km/h 8 mph /  12.9 km/h 67 % 0 in /  0.0 mm
00:47 53.2 °F /  11.8 °C 42.6 °F /  5.9 °C 30.1 in /  1019.5 hPa NW 2 mph /  3.2 km/h 7 mph /  11.3 km/h 67 % 0 in /  0.0 mm
00:52 53.2 °F /  11.8 °C 42.6 °F /  5.9 °C 30.1 in /  1019.5 hPa WNW 3 mph /  4.8 km/h 7 mph /  11.3 km/h 67 % 0 in /  0.0 mm
00:57 53.1 °F /  11.7 °C 42.4 °F /  5.8 °C 30.1 in /  1019.5 hPa NW 3 mph /  4.8 km/h 6 mph /  9.7 km/h 67 % 0 in /  0.0 mm
01:02 52.7 °F /  11.5 °C 42.4 °F /  5.8 °C 30.1 in /  1019.9 hPa WNW 2 mph /  3.2 km/h 6 mph /  9.7 km/h 68 % 0 in /  0.0 mm
01:12 52.3 °F /  11.3 °C 42.1 °F /  5.6 °C 30.1 in /  1019.9 hPa WNW 3 mph /  4.8 km/h 7 mph /  11.3 km/h 68 % 0 in /  0.0 mm
01:17 52.3 °F /  11.3 °C 42.1 °F /  5.6 °C 30.1 in /  1019.9 hPa WNW 2 mph /  3.2 km/h 7 mph /  11.3 km/h 68 % 0 in /  0.0 mm
01:22 52.2 °F /  11.2 °C 42.3 °F /  5.7 °C 30.1 in /  1019.9 hPa NW 3 mph /  4.8 km/h 9 mph /  14.5 km/h 69 % 0 in /  0.0 mm
01:32 52 °F /  11.1 °C 42.4 °F /  5.8 °C 30.1 in /  1019.9 hPa NNW 3 mph /  4.8 km/h 9 mph /  14.5 km/h 70 % 0 in /  0.0 mm
01:37 51.6 °F /  10.9 °C 42.1 °F /  5.6 °C 30.1 in /  1019.9 hPa NW 2 mph /  3.2 km/h 8 mph /  12.9 km/h 70 % 0 in /  0.0 mm
01:42 51.4 °F /  10.8 °C 41.9 °F /  5.5 °C 30.1 in /  1019.5 hPa NW 1 mph /  1.6 km/h 7 mph /  11.3 km/h 70 % 0 in /  0.0 mm
01:47 51.3 °F /  10.7 °C 42.3 °F /  5.7 °C 30.1 in /  1019.5 hPa NW 2 mph /  3.2 km/h 7 mph /  11.3 km/h 71 % 0 in /  0.0 mm
01:52 51.1 °F /  10.6 °C 42.1 °F /  5.6 °C 30.1 in /  1019.5 hPa NW 1 mph /  1.6 km/h 6 mph /  9.7 km/h 71 % 0 in /  0.0 mm
01:57 50.7 °F /  10.4 °C 42.1 °F /  5.6 °C 30.1 in /  1019.5 hPa NW 3 mph /  4.8 km/h 5 mph /  8.0 km/h 72 % 0 in /  0.0 mm
02:02 50.5 °F /  10.3 °C 42.3 °F /  5.7 °C 30.1 in /  1019.5 hPa NNW 1 mph /  1.6 km/h 6 mph /  9.7 km/h 73 % 0 in /  0.0 mm
02:07 50.4 °F /  10.2 °C 42.1 °F /  5.6 °C 30.1 in /  1019.5 hPa NW 1 mph /  1.6 km/h 6 mph /  9.7 km/h 73 % 0 in /  0.0 mm
02:12 50.2 °F /  10.1 °C 42.3 °F /  5.7 °C 30.1 in /  1019.5 hPa WNW 2 mph /  3.2 km/h 6 mph /  9.7 km/h 74 % 0 in /  0.0 mm
02:17 49.8 °F /  9.9 °C 41.9 °F /  5.5 °C 30.1 in /  1019.5 hPa NNE 2 mph /  3.2 km/h 4 mph /  6.4 km/h 74 % 0 in /  0.0 mm
02:22 49.6 °F /  9.8 °C 42.1 °F /  5.6 °C 30.1 in /  1019.5 hPa Calm   3 mph /  4.8 km/h 75 % 0 in /  0.0 mm
02:27 49.3 °F /  9.6 °C 41.7 °F /  5.4 °C 30.1 in /  1019.5 hPa North 2 mph /  3.2 km/h 2 mph /  3.2 km/h 75 % 0 in /  0.0 mm
02:32 48.7 °F /  9.3 °C 41.9 °F /  5.5 °C 30.1 in /  1019.5 hPa NNE 2 mph /  3.2 km/h 4 mph /  6.4 km/h 77 % 0 in /  0.0 mm
02:42 48 °F /  8.9 °C 41.9 °F /  5.5 °C 30.1 in /  1019.5 hPa North 2 mph /  3.2 km/h 5 mph /  8.0 km/h 79 % 0 in /  0.0 mm
02:47 47.8 °F /  8.8 °C 41.9 °F /  5.5 °C 30.1 in /  1019.5 hPa NNW 1 mph /  1.6 km/h 5 mph /  8.0 km/h 80 % 0 in /  0.0 mm
02:52 47.7 °F /  8.7 °C 42.1 °F /  5.6 °C 30.1 in /  1019.5 hPa NNW 2 mph /  3.2 km/h 5 mph /  8.0 km/h 81 % 0 in /  0.0 mm
03:02 47.1 °F /  8.4 °C 41.9 °F /  5.5 °C 30.1 in /  1019.5 hPa NNE 1 mph /  1.6 km/h 4 mph /  6.4 km/h 82 % 0 in /  0.0 mm
03:12 46.9 °F /  8.3 °C 42.1 °F /  5.6 °C 30.1 in /  1019.5 hPa Calm   4 mph /  6.4 km/h 83 % 0 in /  0.0 mm
03:17 46.9 °F /  8.3 °C 42.1 °F /  5.6 °C 30.1 in /  1019.5 hPa Calm   3 mph /  4.8 km/h 83 % 0 in /  0.0 mm
03:22 46.8 °F /  8.2 °C 41.9 °F /  5.5 °C 30.1 in /  1019.5 hPa Calm   3 mph /  4.8 km/h 83 % 0 in /  0.0 mm
03:27 46.4 °F /  8.0 °C 41.9 °F /  5.5 °C 30.1 in /  1019.5 hPa North 1 mph /  1.6 km/h 3 mph /  4.8 km/h 84 % 0 in /  0.0 mm
03:32 46.2 °F /  7.9 °C 41.9 °F /  5.5 °C 30.1 in /  1019.5 hPa NNW 1 mph /  1.6 km/h 5 mph /  8.0 km/h 85 % 0 in /  0.0 mm
03:37 46.2 °F /  7.9 °C 42.3 °F /  5.7 °C 30.1 in /  1019.5 hPa North 1 mph /  1.6 km/h 5 mph /  8.0 km/h 86 % 0 in /  0.0 mm
03:42 46 °F /  7.8 °C 42.1 °F /  5.6 °C 30.1 in /  1019.5 hPa NNE 2 mph /  3.2 km/h 5 mph /  8.0 km/h 86 % 0 in /  0.0 mm
03:47 45.7 °F /  7.6 °C 41.7 °F /  5.4 °C 30.1 in /  1019.5 hPa NNW 2 mph /  3.2 km/h 3 mph /  4.8 km/h 86 % 0 in /  0.0 mm
03:52 45.5 °F /  7.5 °C 41.9 °F /  5.5 °C 30.1 in /  1019.5 hPa North 2 mph /  3.2 km/h 4 mph /  6.4 km/h 87 % 0 in /  0.0 mm
03:57 45.3 °F /  7.4 °C 41.7 °F /  5.4 °C 30.1 in /  1019.5 hPa NNE 1 mph /  1.6 km/h 4 mph /  6.4 km/h 87 % 0 in /  0.0 mm
04:02 45.1 °F /  7.3 °C 41.7 °F /  5.4 °C 30.1 in /  1019.5 hPa Calm   4 mph /  6.4 km/h 88 % 0 in /  0.0 mm
04:12 45.3 °F /  7.4 °C 42.3 °F /  5.7 °C 30.1 in /  1019.5 hPa North 3 mph /  4.8 km/h 5 mph /  8.0 km/h 89 % 0 in /  0.0 mm
04:17 45.7 °F /  7.6 °C 42.3 °F /  5.7 °C 30.1 in /  1019.5 hPa NNE 3 mph /  4.8 km/h 6 mph /  9.7 km/h 88 % 0 in /  0.0 mm
04:22 45.7 °F /  7.6 °C 42.3 °F /  5.7 °C 30.1 in /  1019.5 hPa NNW 3 mph /  4.8 km/h 6 mph /  9.7 km/h 88 % 0 in /  0.0 mm
04:32 45.3 °F /  7.4 °C 41.9 °F /  5.5 °C 30.1 in /  1019.9 hPa NNW 1 mph /  1.6 km/h 6 mph /  9.7 km/h 88 % 0 in /  0.0 mm
04:37 45.1 °F /  7.3 °C 41.7 °F /  5.4 °C 30.1 in /  1019.9 hPa NW 1 mph /  1.6 km/h 4 mph /  6.4 km/h 88 % 0 in /  0.0 mm
04:42 45.1 °F /  7.3 °C 41.7 °F /  5.4 °C 30.1 in /  1019.5 hPa WNW 2 mph /  3.2 km/h 3 mph /  4.8 km/h 88 % 0 in /  0.0 mm
04:47 45 °F /  7.2 °C 41.5 °F /  5.3 °C 30.1 in /  1019.5 hPa NW 1 mph /  1.6 km/h 4 mph /  6.4 km/h 88 % 0 in /  0.0 mm
04:52 44.4 °F /  6.9 °C 40.8 °F /  4.9 °C 30.1 in /  1019.5 hPa North 2 mph /  3.2 km/h 4 mph /  6.4 km/h 87 % 0 in /  0.0 mm
04:57 44.1 °F /  6.7 °C 40.8 °F /  4.9 °C 30.1 in /  1019.5 hPa NW 2 mph /  3.2 km/h 4 mph /  6.4 km/h 88 % 0 in /  0.0 mm
05:02 44.1 °F /  6.7 °C 41 °F /  5.0 °C 30.1 in /  1019.5 hPa NNW 2 mph /  3.2 km/h 4 mph /  6.4 km/h 89 % 0 in /  0.0 mm
05:07 43.9 °F /  6.6 °C 40.8 °F /  4.9 °C 30.1 in /  1019.5 hPa NNW 1 mph /  1.6 km/h 3 mph /  4.8 km/h 89 % 0 in /  0.0 mm
05:17 43.9 °F /  6.6 °C 41.2 °F /  5.1 °C 30.1 in /  1019.9 hPa NNW 1 mph /  1.6 km/h 3 mph /  4.8 km/h 90 % 0 in /  0.0 mm
05:22 43.7 °F /  6.5 °C 40.6 °F /  4.8 °C 30.1 in /  1019.5 hPa WNW 2 mph /  3.2 km/h 3 mph /  4.8 km/h 89 % 0 in /  0.0 mm
05:32 43.5 °F /  6.4 °C 40.8 °F /  4.9 °C 30.1 in /  1019.5 hPa NW 1 mph /  1.6 km/h 3 mph /  4.8 km/h 90 % 0 in /  0.0 mm
05:37 43.5 °F /  6.4 °C 40.8 °F /  4.9 °C 30.1 in /  1019.5 hPa Calm   3 mph /  4.8 km/h 90 % 0 in /  0.0 mm
05:42 43.5 °F /  6.4 °C 41 °F /  5.0 °C 30.1 in /  1019.9 hPa NNW 1 mph /  1.6 km/h 3 mph /  4.8 km/h 91 % 0 in /  0.0 mm
05:47 43.5 °F /  6.4 °C 41 °F /  5.0 °C 30.1 in /  1019.9 hPa Calm   2 mph /  3.2 km/h 91 % 0 in /  0.0 mm
05:52 43.3 °F /  6.3 °C 40.8 °F /  4.9 °C 30.1 in /  1019.9 hPa Calm   2 mph /  3.2 km/h 91 % 0 in /  0.0 mm
06:02 43.2 °F /  6.2 °C 40.6 °F /  4.8 °C 30.1 in /  1019.5 hPa Calm   2 mph /  3.2 km/h 91 % 0 in /  0.0 mm
06:07 43.2 °F /  6.2 °C 40.6 °F /  4.8 °C 30.1 in /  1019.5 hPa Calm   2 mph /  3.2 km/h 91 % 0 in /  0.0 mm
06:12 43 °F /  6.1 °C 40.5 °F /  4.7 °C 30.1 in /  1019.5 hPa Calm   1 mph /  1.6 km/h 91 % 0 in /  0.0 mm
06:17 43 °F /  6.1 °C 40.5 °F /  4.7 °C 30.1 in /  1019.9 hPa Calm   1 mph /  1.6 km/h 91 % 0 in /  0.0 mm
06:22 43 °F /  6.1 °C 40.5 °F /  4.7 °C 30.1 in /  1019.9 hPa NNW 1 mph /  1.6 km/h 1 mph /  1.6 km/h 91 % 0 in /  0.0 mm
06:27 43 °F /  6.1 °C 40.8 °F /  4.9 °C 30.1 in /  1019.5 hPa NW 1 mph /  1.6 km/h 1 mph /  1.6 km/h 92 % 0 in /  0.0 mm
06:32 43 °F /  6.1 °C 40.8 °F /  4.9 °C 30.1 in /  1019.9 hPa NW 2 mph /  3.2 km/h 3 mph /  4.8 km/h 92 % 0 in /  0.0 mm
06:37 43 °F /  6.1 °C 40.8 °F /  4.9 °C 30.1 in /  1019.9 hPa NNW 1 mph /  1.6 km/h 3 mph /  4.8 km/h 92 % 0 in /  0.0 mm
06:42 43.2 °F /  6.2 °C 41 °F /  5.0 °C 30.1 in /  1019.9 hPa NNW 1 mph /  1.6 km/h 3 mph /  4.8 km/h 92 % 0 in /  0.0 mm
06:52 43 °F /  6.1 °C 40.8 °F /  4.9 °C 30.1 in /  1019.9 hPa NNW 1 mph /  1.6 km/h 3 mph /  4.8 km/h 92 % 0 in /  0.0 mm
06:57 42.6 °F /  5.9 °C 40.5 °F /  4.7 °C 30.1 in /  1019.9 hPa Calm   3 mph /  4.8 km/h 92 % 0 in /  0.0 mm
07:02 42.6 °F /  5.9 °C 40.5 °F /  4.7 °C 30.1 in /  1019.9 hPa North 1 mph /  1.6 km/h 2 mph /  3.2 km/h 92 % 0 in /  0.0 mm
07:12 42.4 °F /  5.8 °C 40.6 °F /  4.8 °C 30.1 in /  1019.9 hPa Calm   1 mph /  1.6 km/h 93 % 0 in /  0.0 mm
07:17 42.4 °F /  5.8 °C 40.6 °F /  4.8 °C 30.1 in /  1019.9 hPa Calm   1 mph /  1.6 km/h 93 % 0 in /  0.0 mm
07:22 42.4 °F /  5.8 °C 40.6 °F /  4.8 °C 30.1 in /  1019.9 hPa Calm   2 mph /  3.2 km/h 93 % 0 in /  0.0 mm
07:32 42.6 °F /  5.9 °C 40.8 °F /  4.9 °C 30.1 in /  1019.9 hPa Calm   2 mph /  3.2 km/h 93 % 0 in /  0.0 mm
07:37 42.6 °F /  5.9 °C 40.8 °F /  4.9 °C 30.1 in /  1019.9 hPa NW 1 mph /  1.6 km/h 2 mph /  3.2 km/h 93 % 0 in /  0.0 mm
07:42 42.6 °F /  5.9 °C 40.8 °F /  4.9 °C 30.1 in /  1019.9 hPa NW 1 mph /  1.6 km/h 3 mph /  4.8 km/h 93 % 0 in /  0.0 mm
07:47 42.8 °F /  6.0 °C 41 °F /  5.0 °C 30.1 in /  1019.9 hPa NW 1 mph /  1.6 km/h 3 mph /  4.8 km/h 93 % 0 in /  0.0 mm
07:52 43 °F /  6.1 °C 41.2 °F /  5.1 °C 30.1 in /  1019.9 hPa NW 1 mph /  1.6 km/h 3 mph /  4.8 km/h 93 % 0 in /  0.0 mm
08:02 43.2 °F /  6.2 °C 41.4 °F /  5.2 °C 30.1 in /  1020.2 hPa Calm   3 mph /  4.8 km/h 93 % 0 in /  0.0 mm
08:07 43.5 °F /  6.4 °C 41.4 °F /  5.2 °C 30.1 in /  1020.2 hPa Calm   3 mph /  4.8 km/h 92 % 0 in /  0.0 mm
08:12 43.9 °F /  6.6 °C 41.7 °F /  5.4 °C 30.1 in /  1020.2 hPa Calm   1 mph /  1.6 km/h 92 % 0 in /  0.0 mm
08:17 44.1 °F /  6.7 °C 41.9 °F /  5.5 °C 30.1 in /  1020.2 hPa Calm   1 mph /  1.6 km/h 92 % 0 in /  0.0 mm
08:22 44.4 °F /  6.9 °C 42.3 °F /  5.7 °C 30.1 in /  1020.5 hPa Calm   1 mph /  1.6 km/h 92 % 0 in /  0.0 mm
08:27 44.8 °F /  7.1 °C 42.3 °F /  5.7 °C 30.1 in /  1020.2 hPa WNW 1 mph /  1.6 km/h 1 mph /  1.6 km/h 91 % 0 in /  0.0 mm
08:32 45 °F /  7.2 °C 42.4 °F /  5.8 °C 30.1 in /  1020.5 hPa Calm   2 mph /  3.2 km/h 91 % 0 in /  0.0 mm
08:42 45.7 °F /  7.6 °C 43 °F /  6.1 °C 30.1 in /  1020.2 hPa Calm   2 mph /  3.2 km/h 90 % 0 in /  0.0 mm
08:47 46 °F /  7.8 °C 43 °F /  6.1 °C 30.1 in /  1020.2 hPa Calm   2 mph /  3.2 km/h 89 % 0 in /  0.0 mm
08:52 46.6 °F /  8.1 °C 43.5 °F /  6.4 °C 30.1 in /  1020.2 hPa Calm   2 mph /  3.2 km/h 89 % 0 in /  0.0 mm
09:02 47.7 °F /  8.7 °C 43.7 °F /  6.5 °C 30.1 in /  1020.2 hPa Calm   1 mph /  1.6 km/h 86 % 0 in /  0.0 mm
09:07 48.2 °F /  9.0 °C 44.2 °F /  6.8 °C 30.1 in /  1020.2 hPa Calm     86 % 0 in /  0.0 mm
09:12 48.9 °F /  9.4 °C 44.6 °F /  7.0 °C 30.1 in /  1020.2 hPa Calm     85 % 0 in /  0.0 mm
09:17 48.6 °F /  9.2 °C 43.7 °F /  6.5 °C 30.1 in /  1020.2 hPa Calm     83 % 0 in /  0.0 mm
09:22 48.6 °F /  9.2 °C 43.7 °F /  6.5 °C 30.1 in /  1020.2 hPa WNW 3 mph /  4.8 km/h 4 mph /  6.4 km/h 83 % 0 in /  0.0 mm
09:27 48.6 °F /  9.2 °C 43.9 °F /  6.6 °C 30.1 in /  1020.2 hPa Calm   4 mph /  6.4 km/h 84 % 0 in /  0.0 mm
09:32 49.3 °F /  9.6 °C 44.4 °F /  6.9 °C 30.1 in /  1020.2 hPa NW 2 mph /  3.2 km/h 4 mph /  6.4 km/h 83 % 0 in /  0.0 mm
09:42 49.5 °F /  9.7 °C 43.9 °F /  6.6 °C 30.1 in /  1020.2 hPa WNW 1 mph /  1.6 km/h 4 mph /  6.4 km/h 81 % 0 in /  0.0 mm
09:47 49.6 °F /  9.8 °C 43.7 °F /  6.5 °C 30.1 in /  1020.2 hPa Calm   4 mph /  6.4 km/h 80 % 0 in /  0.0 mm
09:52 49.6 °F /  9.8 °C 44.1 °F /  6.7 °C 30.1 in /  1020.2 hPa NNW 2 mph /  3.2 km/h 5 mph /  8.0 km/h 81 % 0 in /  0.0 mm
09:57 49.8 °F /  9.9 °C 43.9 °F /  6.6 °C 30.1 in /  1020.2 hPa Calm   6 mph /  9.7 km/h 80 % 0 in /  0.0 mm
10:02 50.2 °F /  10.1 °C 43.9 °F /  6.6 °C 30.1 in /  1020.2 hPa WNW 1 mph /  1.6 km/h 8 mph /  12.9 km/h 79 % 0 in /  0.0 mm
10:12 51.1 °F /  10.6 °C 44.8 °F /  7.1 °C 30.1 in /  1020.2 hPa WNW 2 mph /  3.2 km/h 8 mph /  12.9 km/h 79 % 0 in /  0.0 mm
10:17 51.8 °F /  11.0 °C 44.8 °F /  7.1 °C 30.1 in /  1020.2 hPa Calm   3 mph /  4.8 km/h 77 % 0 in /  0.0 mm
10:22 52.7 °F /  11.5 °C 45 °F /  7.2 °C 30.1 in /  1020.2 hPa ENE 1 mph /  1.6 km/h 2 mph /  3.2 km/h 75 % 0 in /  0.0 mm
10:27 52.5 °F /  11.4 °C 44.4 °F /  6.9 °C 30.1 in /  1020.2 hPa NE 2 mph /  3.2 km/h 2 mph /  3.2 km/h 74 % 0 in /  0.0 mm
10:32 52.3 °F /  11.3 °C 44.6 °F /  7.0 °C 30.1 in /  1020.2 hPa NNW 2 mph /  3.2 km/h 2 mph /  3.2 km/h 75 % 0 in /  0.0 mm
10:37 52.5 °F /  11.4 °C 44.8 °F /  7.1 °C 30.1 in /  1020.2 hPa Calm   4 mph /  6.4 km/h 75 % 0 in /  0.0 mm
10:47 53.2 °F /  11.8 °C 44.8 °F /  7.1 °C 30.1 in /  1020.2 hPa North 2 mph /  3.2 km/h 4 mph /  6.4 km/h 73 % 0 in /  0.0 mm
10:52 53.2 °F /  11.8 °C 44.4 °F /  6.9 °C 30.1 in /  1020.2 hPa West 2 mph /  3.2 km/h 2 mph /  3.2 km/h 72 % 0 in /  0.0 mm
10:57 52.9 °F /  11.6 °C 44.1 °F /  6.7 °C 30.1 in /  1020.2 hPa NNW 5 mph /  8.0 km/h 5 mph /  8.0 km/h 72 % 0 in /  0.0 mm
11:02 53.1 °F /  11.7 °C 44.2 °F /  6.8 °C 30.1 in /  1020.2 hPa Calm   4 mph /  6.4 km/h 72 % 0 in /  0.0 mm
11:12 54.3 °F /  12.4 °C 45.1 °F /  7.3 °C 30.1 in /  1020.2 hPa West 1 mph /  1.6 km/h 7 mph /  11.3 km/h 71 % 0 in /  0.0 mm
11:17 54.3 °F /  12.4 °C 44.4 °F /  6.9 °C 30.1 in /  1020.2 hPa WNW 2 mph /  3.2 km/h 6 mph /  9.7 km/h 69 % 0 in /  0.0 mm
11:22 54.1 °F /  12.3 °C 44.6 °F /  7.0 °C 30.1 in /  1020.2 hPa West 1 mph /  1.6 km/h 6 mph /  9.7 km/h 70 % 0 in /  0.0 mm
11:27 54.7 °F /  12.6 °C 45.1 °F /  7.3 °C 30.1 in /  1020.2 hPa Calm   6 mph /  9.7 km/h 70 % 0 in /  0.0 mm
11:32 55.6 °F /  13.1 °C 46 °F /  7.8 °C 30.1 in /  1020.2 hPa North 1 mph /  1.6 km/h 5 mph /  8.0 km/h 70 % 0 in /  0.0 mm
11:37 55.8 °F /  13.2 °C 45.3 °F /  7.4 °C 30.1 in /  1020.2 hPa Calm   4 mph /  6.4 km/h 68 % 0 in /  0.0 mm
11:42 55.9 °F /  13.3 °C 45.1 °F /  7.3 °C 30.1 in /  1020.2 hPa NE 4 mph /  6.4 km/h 5 mph /  8.0 km/h 67 % 0 in /  0.0 mm
11:47 55.4 °F /  13.0 °C 45.3 °F /  7.4 °C 30.1 in /  1020.2 hPa ENE 3 mph /  4.8 km/h 6 mph /  9.7 km/h 69 % 0 in /  0.0 mm
11:52 55.2 °F /  12.9 °C 44.4 °F /  6.9 °C 30.1 in /  1020.2 hPa Calm   6 mph /  9.7 km/h 67 % 0 in /  0.0 mm
11:57 55.8 °F /  13.2 °C 45.3 °F /  7.4 °C 30.1 in /  1020.2 hPa West 1 mph /  1.6 km/h 5 mph /  8.0 km/h 68 % 0 in /  0.0 mm
12:07 56.1 °F /  13.4 °C 45 °F /  7.2 °C 30.1 in /  1020.2 hPa West 1 mph /  1.6 km/h 5 mph /  8.0 km/h 66 % 0 in /  0.0 mm
12:12 56.1 °F /  13.4 °C 45 °F /  7.2 °C 30.1 in /  1020.2 hPa Calm   5 mph /  8.0 km/h 66 % 0 in /  0.0 mm
12:17 56.7 °F /  13.7 °C 45 °F /  7.2 °C 30.1 in /  1020.2 hPa Calm   5 mph /  8.0 km/h 65 % 0 in /  0.0 mm
12:22 56.5 °F /  13.6 °C 44.8 °F /  7.1 °C 30.1 in /  1020.2 hPa NNE 5 mph /  8.0 km/h 5 mph /  8.0 km/h 65 % 0 in /  0.0 mm
12:27 56.3 °F /  13.5 °C 45.1 °F /  7.3 °C 30.1 in /  1020.2 hPa West 1 mph /  1.6 km/h 7 mph /  11.3 km/h 66 % 0 in /  0.0 mm
12:32 56.8 °F /  13.8 °C 45.1 °F /  7.3 °C 30.1 in /  1020.2 hPa Calm   7 mph /  11.3 km/h 65 % 0 in /  0.0 mm
12:37 57.4 °F /  14.1 °C 45.7 °F /  7.6 °C 30.1 in /  1019.9 hPa WNW 6 mph /  9.7 km/h 7 mph /  11.3 km/h 65 % 0 in /  0.0 mm
12:42 57.2 °F /  14.0 °C 45.1 °F /  7.3 °C 30.1 in /  1019.9 hPa WNW 2 mph /  3.2 km/h 6 mph /  9.7 km/h 64 % 0 in /  0.0 mm
12:52 57.6 °F /  14.2 °C 45.1 °F /  7.3 °C 30.1 in /  1019.9 hPa NNE 2 mph /  3.2 km/h 7 mph /  11.3 km/h 63 % 0 in /  0.0 mm
12:57 58.1 °F /  14.5 °C 45.5 °F /  7.5 °C 30.1 in /  1019.9 hPa WNW 2 mph /  3.2 km/h 7 mph /  11.3 km/h 63 % 0 in /  0.0 mm
13:02 58.3 °F /  14.6 °C 45.3 °F /  7.4 °C 30.1 in /  1019.9 hPa NNW 3 mph /  4.8 km/h 7 mph /  11.3 km/h 62 % 0 in /  0.0 mm
13:07 58.1 °F /  14.5 °C 44.8 °F /  7.1 °C 30.1 in /  1019.9 hPa NE 3 mph /  4.8 km/h 7 mph /  11.3 km/h 61 % 0 in /  0.0 mm
13:12 58.3 °F /  14.6 °C 45.7 °F /  7.6 °C 30.1 in /  1019.9 hPa NNW 3 mph /  4.8 km/h 7 mph /  11.3 km/h 63 % 0 in /  0.0 mm
13:17 58.8 °F /  14.9 °C 46.2 °F /  7.9 °C 30.1 in /  1019.9 hPa NNW 3 mph /  4.8 km/h 5 mph /  8.0 km/h 63 % 0 in /  0.0 mm
13:22 59 °F /  15.0 °C 46 °F /  7.8 °C 30.1 in /  1019.9 hPa Calm   5 mph /  8.0 km/h 62 % 0 in /  0.0 mm
13:32 58.6 °F /  14.8 °C 45.7 °F /  7.6 °C 30.1 in /  1019.9 hPa NNW 5 mph /  8.0 km/h 6 mph /  9.7 km/h 62 % 0 in /  0.0 mm
13:37 59.2 °F /  15.1 °C 45.3 °F /  7.4 °C 30.1 in /  1019.9 hPa NNE 1 mph /  1.6 km/h 7 mph /  11.3 km/h 60 % 0 in /  0.0 mm
13:42 59.5 °F /  15.3 °C 46 °F /  7.8 °C 30.1 in /  1019.5 hPa Calm   7 mph /  11.3 km/h 61 % 0 in /  0.0 mm
13:47 59.9 °F /  15.5 °C 46.8 °F /  8.2 °C 30.1 in /  1019.5 hPa NW 2 mph /  3.2 km/h 7 mph /  11.3 km/h 62 % 0 in /  0.0 mm
13:52 60.1 °F /  15.6 °C 45.7 °F /  7.6 °C 30.1 in /  1019.5 hPa WSW 1 mph /  1.6 km/h 7 mph /  11.3 km/h 59 % 0 in /  0.0 mm
13:57 60.3 °F /  15.7 °C 46.8 °F /  8.2 °C 30.1 in /  1019.5 hPa Calm   7 mph /  11.3 km/h 61 % 0 in /  0.0 mm
14:02 60.3 °F /  15.7 °C 45.9 °F /  7.7 °C 30.1 in /  1019.5 hPa NNE 1 mph /  1.6 km/h 6 mph /  9.7 km/h 59 % 0 in /  0.0 mm
14:07 60.4 °F /  15.8 °C 46.4 °F /  8.0 °C 30.1 in /  1019.5 hPa Calm   6 mph /  9.7 km/h 60 % 0 in /  0.0 mm
14:12 60.6 °F /  15.9 °C 46.6 °F /  8.1 °C 30.1 in /  1019.2 hPa Calm   8 mph /  12.9 km/h 60 % 0 in /  0.0 mm
14:17 61.2 °F /  16.2 °C 47.1 °F /  8.4 °C 30.1 in /  1019.5 hPa NE 2 mph /  3.2 km/h 8 mph /  12.9 km/h 60 % 0 in /  0.0 mm
14:22 60.8 °F /  16.0 °C 47.3 °F /  8.5 °C 30.1 in /  1019.2 hPa NNE 7 mph /  11.3 km/h 9 mph /  14.5 km/h 61 % 0 in /  0.0 mm
14:32 61 °F /  16.1 °C 47.5 °F /  8.6 °C 30.1 in /  1019.5 hPa WNW 4 mph /  6.4 km/h 8 mph /  12.9 km/h 61 % 0 in /  0.0 mm
14:37 62.2 °F /  16.8 °C 48.2 °F /  9.0 °C 30.1 in /  1019.2 hPa Calm   8 mph /  12.9 km/h 60 % 0 in /  0.0 mm
14:42 62.1 °F /  16.7 °C 47.1 °F /  8.4 °C 30.1 in /  1019.2 hPa WNW 3 mph /  4.8 km/h 8 mph /  12.9 km/h 58 % 0 in /  0.0 mm
14:47 62.1 °F /  16.7 °C 47.5 °F /  8.6 °C 30.1 in /  1019.2 hPa NNW 4 mph /  6.4 km/h 8 mph /  12.9 km/h 59 % 0 in /  0.0 mm
14:52 61.9 °F /  16.6 °C 47.5 °F /  8.6 °C 30.1 in /  1019.2 hPa NW 3 mph /  4.8 km/h 8 mph /  12.9 km/h 59 % 0 in /  0.0 mm
14:57 61.7 °F /  16.5 °C 48.6 °F /  9.2 °C 30.1 in /  1019.2 hPa NW 2 mph /  3.2 km/h 8 mph /  12.9 km/h 62 % 0 in /  0.0 mm
15:02 62.2 °F /  16.8 °C 49.1 °F /  9.5 °C 30.1 in /  1019.2 hPa North 5 mph /  8.0 km/h 8 mph /  12.9 km/h 62 % 0 in /  0.0 mm
15:07 61.3 °F /  16.3 °C 46.9 °F /  8.3 °C 30.1 in /  1018.8 hPa NNE 4 mph /  6.4 km/h 7 mph /  11.3 km/h 59 % 0 in /  0.0 mm
15:12 61.2 °F /  16.2 °C 47.7 °F /  8.7 °C 30.1 in /  1018.8 hPa NNE 4 mph /  6.4 km/h 8 mph /  12.9 km/h 61 % 0 in /  0.0 mm
15:17 61.5 °F /  16.4 °C 47.5 °F /  8.6 °C 30.1 in /  1018.8 hPa WNW 4 mph /  6.4 km/h 10 mph /  16.1 km/h 60 % 0 in /  0.0 mm
15:22 61.3 °F /  16.3 °C 46.9 °F /  8.3 °C 30.1 in /  1018.8 hPa NNE 1 mph /  1.6 km/h 10 mph /  16.1 km/h 59 % 0 in /  0.0 mm
15:32 61.5 °F /  16.4 °C 48 °F /  8.9 °C 30.1 in /  1018.8 hPa WNW 3 mph /  4.8 km/h 10 mph /  16.1 km/h 61 % 0 in /  0.0 mm
15:42 62.1 °F /  16.7 °C 48 °F /  8.9 °C 30.1 in /  1018.5 hPa NW 4 mph /  6.4 km/h 10 mph /  16.1 km/h 60 % 0 in /  0.0 mm
15:47 62.6 °F /  17.0 °C 47.7 °F /  8.7 °C 30.1 in /  1018.5 hPa WNW 2 mph /  3.2 km/h 7 mph /  11.3 km/h 58 % 0 in /  0.0 mm
15:52 62.8 °F /  17.1 °C 48.2 °F /  9.0 °C 30.1 in /  1018.5 hPa NNW 2 mph /  3.2 km/h 6 mph /  9.7 km/h 59 % 0 in /  0.0 mm
15:57 63.3 °F /  17.4 °C 48.7 °F /  9.3 °C 30.1 in /  1018.2 hPa NE 7 mph /  11.3 km/h 7 mph /  11.3 km/h 59 % 0 in /  0.0 mm
16:02 63.5 °F /  17.5 °C 48.9 °F /  9.4 °C 30.1 in /  1018.2 hPa NW 6 mph /  9.7 km/h 7 mph /  11.3 km/h 59 % 0 in /  0.0 mm
16:12 62.6 °F /  17.0 °C 48 °F /  8.9 °C 30.1 in /  1018.5 hPa Calm   10 mph /  16.1 km/h 59 % 0 in /  0.0 mm
16:17 62.1 °F /  16.7 °C 47.1 °F /  8.4 °C 30.1 in /  1018.2 hPa NE 4 mph /  6.4 km/h 8 mph /  12.9 km/h 58 % 0 in /  0.0 mm
16:22 61.5 °F /  16.4 °C 47.1 °F /  8.4 °C 30.1 in /  1018.2 hPa Calm   8 mph /  12.9 km/h 59 % 0 in /  0.0 mm
16:32 62.6 °F /  17.0 °C 48 °F /  8.9 °C 30.1 in /  1018.2 hPa East 1 mph /  1.6 km/h 7 mph /  11.3 km/h 59 % 0 in /  0.0 mm
16:37 63 °F /  17.2 °C 48.4 °F /  9.1 °C 30.1 in /  1017.8 hPa North 6 mph /  9.7 km/h 8 mph /  12.9 km/h 59 % 0 in /  0.0 mm
16:42 63.1 °F /  17.3 °C 48.6 °F /  9.2 °C 30.1 in /  1017.8 hPa NNE 5 mph /  8.0 km/h 8 mph /  12.9 km/h 59 % 0 in /  0.0 mm
16:47 63.3 °F /  17.4 °C 48.4 °F /  9.1 °C 30.1 in /  1017.8 hPa NNE 5 mph /  8.0 km/h 8 mph /  12.9 km/h 58 % 0 in /  0.0 mm
16:52 62.8 °F /  17.1 °C 47.8 °F /  8.8 °C 30.1 in /  1017.8 hPa North 1 mph /  1.6 km/h 8 mph /  12.9 km/h 58 % 0 in /  0.0 mm
16:57 63 °F /  17.2 °C 48.4 °F /  9.1 °C 30.1 in /  1017.8 hPa ENE 5 mph /  8.0 km/h 8 mph /  12.9 km/h 59 % 0 in /  0.0 mm
17:02 63.3 °F /  17.4 °C 47.8 °F /  8.8 °C 30.1 in /  1017.8 hPa NE 1 mph /  1.6 km/h 7 mph /  11.3 km/h 57 % 0 in /  0.0 mm
17:07 63.1 °F /  17.3 °C 48.2 °F /  9.0 °C 30.1 in /  1017.8 hPa NNW 4 mph /  6.4 km/h 8 mph /  12.9 km/h 58 % 0 in /  0.0 mm
17:12 63 °F /  17.2 °C 48.9 °F /  9.4 °C 30.1 in /  1017.8 hPa NW 2 mph /  3.2 km/h 9 mph /  14.5 km/h 60 % 0 in /  0.0 mm
17:17 63.3 °F /  17.4 °C 48.4 °F /  9.1 °C 30.1 in /  1017.8 hPa NNW 3 mph /  4.8 km/h 9 mph /  14.5 km/h 58 % 0 in /  0.0 mm
17:27 62.8 °F /  17.1 °C 47.3 °F /  8.5 °C 30.1 in /  1017.8 hPa WNW 1 mph /  1.6 km/h 6 mph /  9.7 km/h 57 % 0 in /  0.0 mm
17:32 63.7 °F /  17.6 °C 49.1 °F /  9.5 °C 30.1 in /  1017.8 hPa West 3 mph /  4.8 km/h 5 mph /  8.0 km/h 59 % 0 in /  0.0 mm
17:37 63.3 °F /  17.4 °C 47.8 °F /  8.8 °C 30.1 in /  1017.5 hPa NE 3 mph /  4.8 km/h 8 mph /  12.9 km/h 57 % 0 in /  0.0 mm
17:42 62.8 °F /  17.1 °C 48.2 °F /  9.0 °C 30.1 in /  1017.8 hPa NNW 2 mph /  3.2 km/h 8 mph /  12.9 km/h 59 % 0 in /  0.0 mm
17:47 62.4 °F /  16.9 °C 48.4 °F /  9.1 °C 30.1 in /  1017.8 hPa NE 8 mph /  12.9 km/h 9 mph /  14.5 km/h 60 % 0 in /  0.0 mm
17:52 62.1 °F /  16.7 °C 48.4 °F /  9.1 °C 30.1 in /  1017.5 hPa NNE 7 mph /  11.3 km/h 11 mph /  17.7 km/h 61 % 0 in /  0.0 mm
17:57 62.1 °F /  16.7 °C 48.9 °F /  9.4 °C 30.1 in /  1017.5 hPa North 3 mph /  4.8 km/h 11 mph /  17.7 km/h 62 % 0 in /  0.0 mm
18:02 62.1 °F /  16.7 °C 48 °F /  8.9 °C 30.1 in /  1017.5 hPa NNE 2 mph /  3.2 km/h 10 mph /  16.1 km/h 60 % 0 in /  0.0 mm
18:07 61.7 °F /  16.5 °C 48.2 °F /  9.0 °C 30.1 in /  1017.5 hPa NNW 5 mph /  8.0 km/h 13 mph /  20.9 km/h 61 % 0 in /  0.0 mm
18:12 61.9 °F /  16.6 °C 47.5 °F /  8.6 °C 30.1 in /  1017.5 hPa NNW 3 mph /  4.8 km/h 13 mph /  20.9 km/h 59 % 0 in /  0.0 mm
18:17 61.9 °F /  16.6 °C 47.8 °F /  8.8 °C 30.1 in /  1017.5 hPa NNE 2 mph /  3.2 km/h 13 mph /  20.9 km/h 60 % 0 in /  0.0 mm
18:22 61.7 °F /  16.5 °C 47.7 °F /  8.7 °C 30.1 in /  1017.5 hPa NNE 3 mph /  4.8 km/h 9 mph /  14.5 km/h 60 % 0 in /  0.0 mm
18:27 61.7 °F /  16.5 °C 48.2 °F /  9.0 °C 30.1 in /  1017.5 hPa NW 5 mph /  8.0 km/h 11 mph /  17.7 km/h 61 % 0 in /  0.0 mm
18:32 61.3 °F /  16.3 °C 47.8 °F /  8.8 °C 30.1 in /  1017.5 hPa NNE 2 mph /  3.2 km/h 11 mph /  17.7 km/h 61 % 0 in /  0.0 mm
18:37 61.2 °F /  16.2 °C 47.1 °F /  8.4 °C 30.1 in /  1017.5 hPa NNE 4 mph /  6.4 km/h 11 mph /  17.7 km/h 60 % 0 in /  0.0 mm
18:47 61 °F /  16.1 °C 46.9 °F /  8.3 °C 30.1 in /  1017.5 hPa NE 3 mph /  4.8 km/h 8 mph /  12.9 km/h 60 % 0 in /  0.0 mm
18:52 61 °F /  16.1 °C 46.6 °F /  8.1 °C 30.1 in /  1017.5 hPa NNE 7 mph /  11.3 km/h 8 mph /  12.9 km/h 59 % 0 in /  0.0 mm
18:57 61.2 °F /  16.2 °C 47.7 °F /  8.7 °C 30.1 in /  1017.5 hPa NNE 2 mph /  3.2 km/h 9 mph /  14.5 km/h 61 % 0 in /  0.0 mm
19:02 61.5 °F /  16.4 °C 48 °F /  8.9 °C 30.1 in /  1017.5 hPa North 1 mph /  1.6 km/h 9 mph /  14.5 km/h 61 % 0 in /  0.0 mm
19:12 61.3 °F /  16.3 °C 47.3 °F /  8.5 °C 30.1 in /  1017.5 hPa NNE 4 mph /  6.4 km/h 7 mph /  11.3 km/h 60 % 0 in /  0.0 mm
19:22 60.6 °F /  15.9 °C 47.1 °F /  8.4 °C 30.1 in /  1017.5 hPa NE 7 mph /  11.3 km/h 10 mph /  16.1 km/h 61 % 0 in /  0.0 mm
19:37 60.3 °F /  15.7 °C 47.7 °F /  8.7 °C 30.1 in /  1017.5 hPa North 4 mph /  6.4 km/h 9 mph /  14.5 km/h 63 % 0 in /  0.0 mm
19:42 59.9 °F /  15.5 °C 47.7 °F /  8.7 °C 30.1 in /  1017.5 hPa NE 3 mph /  4.8 km/h 9 mph /  14.5 km/h 64 % 0 in /  0.0 mm
19:47 59.7 °F /  15.4 °C 47.1 °F /  8.4 °C 30.1 in /  1017.5 hPa NE 4 mph /  6.4 km/h 9 mph /  14.5 km/h 63 % 0 in /  0.0 mm
19:52 59.5 °F /  15.3 °C 47.3 °F /  8.5 °C 30.1 in /  1017.5 hPa North 4 mph /  6.4 km/h 8 mph /  12.9 km/h 64 % 0 in /  0.0 mm
19:57 59.2 °F /  15.1 °C 46.9 °F /  8.3 °C 30.1 in /  1017.5 hPa NNE 5 mph /  8.0 km/h 9 mph /  14.5 km/h 64 % 0 in /  0.0 mm
20:02 58.8 °F /  14.9 °C 47.1 °F /  8.4 °C 30.1 in /  1017.5 hPa NNE 4 mph /  6.4 km/h 9 mph /  14.5 km/h 65 % 0 in /  0.0 mm
20:12 57.9 °F /  14.4 °C 46.6 °F /  8.1 °C 30.1 in /  1017.8 hPa NNE 6 mph /  9.7 km/h 8 mph /  12.9 km/h 66 % 0 in /  0.0 mm
20:17 57.6 °F /  14.2 °C 46.2 °F /  7.9 °C 30.1 in /  1017.5 hPa NNE 7 mph /  11.3 km/h 8 mph /  12.9 km/h 66 % 0 in /  0.0 mm
20:22 57 °F /  13.9 °C 46.2 °F /  7.9 °C 30.1 in /  1017.8 hPa North 3 mph /  4.8 km/h 8 mph /  12.9 km/h 67 % 0 in /  0.0 mm
20:27 56.5 °F /  13.6 °C 46 °F /  7.8 °C 30.1 in /  1017.8 hPa NNE 4 mph /  6.4 km/h 8 mph /  12.9 km/h 68 % 0 in /  0.0 mm
20:32 56.1 °F /  13.4 °C 46 °F /  7.8 °C 30.1 in /  1017.8 hPa NNE 4 mph /  6.4 km/h 8 mph /  12.9 km/h 69 % 0 in /  0.0 mm
20:42 55.6 °F /  13.1 °C 45.5 °F /  7.5 °C 30.1 in /  1017.8 hPa NW 1 mph /  1.6 km/h 11 mph /  17.7 km/h 69 % 0 in /  0.0 mm
20:52 55.2 °F /  12.9 °C 45.7 °F /  7.6 °C 30.1 in /  1017.8 hPa NNE 1 mph /  1.6 km/h 8 mph /  12.9 km/h 70 % 0 in /  0.0 mm
20:57 55.2 °F /  12.9 °C 45.7 °F /  7.6 °C 30.1 in /  1018.2 hPa NE 2 mph /  3.2 km/h 10 mph /  16.1 km/h 70 % 0 in /  0.0 mm
21:02 54.9 °F /  12.7 °C 45.3 °F /  7.4 °C 30.1 in /  1018.2 hPa NE 2 mph /  3.2 km/h 10 mph /  16.1 km/h 70 % 0 in /  0.0 mm
21:12 54.3 °F /  12.4 °C 45.1 °F /  7.3 °C 30.1 in /  1018.2 hPa NNE 2 mph /  3.2 km/h 6 mph /  9.7 km/h 71 % 0 in /  0.0 mm
21:17 54.1 °F /  12.3 °C 45.3 °F /  7.4 °C 30.1 in /  1018.2 hPa NE 2 mph /  3.2 km/h 6 mph /  9.7 km/h 72 % 0 in /  0.0 mm
21:22 54.1 °F /  12.3 °C 45.3 °F /  7.4 °C 30.1 in /  1018.2 hPa NNE 4 mph /  6.4 km/h 5 mph /  8.0 km/h 72 % 0 in /  0.0 mm
21:27 53.8 °F /  12.1 °C 45.3 °F /  7.4 °C 30.1 in /  1018.2 hPa North 2 mph /  3.2 km/h 5 mph /  8.0 km/h 73 % 0 in /  0.0 mm
21:37 53.1 °F /  11.7 °C 45 °F /  7.2 °C 30.1 in /  1018.5 hPa NNE 3 mph /  4.8 km/h 5 mph /  8.0 km/h 74 % 0 in /  0.0 mm
21:42 53.1 °F /  11.7 °C 45 °F /  7.2 °C 30.1 in /  1018.5 hPa Calm   4 mph /  6.4 km/h 74 % 0 in /  0.0 mm
21:47 52.9 °F /  11.6 °C 44.8 °F /  7.1 °C 30.1 in /  1018.5 hPa ENE 2 mph /  3.2 km/h 4 mph /  6.4 km/h 74 % 0 in /  0.0 mm
21:52 52.5 °F /  11.4 °C 44.8 °F /  7.1 °C 30.1 in /  1018.5 hPa NNE 3 mph /  4.8 km/h 4 mph /  6.4 km/h 75 % 0 in /  0.0 mm
21:57 52.5 °F /  11.4 °C 44.8 °F /  7.1 °C 30.1 in /  1018.5 hPa NNE 3 mph /  4.8 km/h 4 mph /  6.4 km/h 75 % 0 in /  0.0 mm
22:02 52.5 °F /  11.4 °C 44.8 °F /  7.1 °C 30.1 in /  1018.5 hPa ENE 1 mph /  1.6 km/h 4 mph /  6.4 km/h 75 % 0 in /  0.0 mm
22:07 52.3 °F /  11.3 °C 44.6 °F /  7.0 °C 30.1 in /  1018.5 hPa NNE 2 mph /  3.2 km/h 5 mph /  8.0 km/h 75 % 0 in /  0.0 mm
22:12 52 °F /  11.1 °C 44.2 °F /  6.8 °C 30.1 in /  1018.5 hPa Calm   5 mph /  8.0 km/h 75 % 0 in /  0.0 mm
22:17 51.6 °F /  10.9 °C 44.2 °F /  6.8 °C 30.1 in /  1018.5 hPa Calm   5 mph /  8.0 km/h 76 % 0 in /  0.0 mm
22:22 51.6 °F /  10.9 °C 44.2 °F /  6.8 °C 30.1 in /  1018.5 hPa NNW 1 mph /  1.6 km/h 4 mph /  6.4 km/h 76 % 0 in /  0.0 mm
22:27 51.6 °F /  10.9 °C 44.2 °F /  6.8 °C 30.1 in /  1018.5 hPa NNE 1 mph /  1.6 km/h 3 mph /  4.8 km/h 76 % 0 in /  0.0 mm
22:32 51.6 °F /  10.9 °C 43.9 °F /  6.6 °C 30.1 in /  1018.5 hPa NNW 2 mph /  3.2 km/h 3 mph /  4.8 km/h 75 % 0 in /  0.0 mm
22:37 51.4 °F /  10.8 °C 43.7 °F /  6.5 °C 30.1 in /  1018.5 hPa Calm   3 mph /  4.8 km/h 75 % 0 in /  0.0 mm
22:47 51.1 °F /  10.6 °C 43.5 °F /  6.4 °C 30.1 in /  1018.5 hPa Calm   3 mph /  4.8 km/h 75 % 0 in /  0.0 mm
22:52 50.7 °F /  10.4 °C 43.5 °F /  6.4 °C 30.1 in /  1018.5 hPa Calm   2 mph /  3.2 km/h 76 % 0 in /  0.0 mm
22:57 50.4 °F /  10.2 °C 43.2 °F /  6.2 °C 30.1 in /  1018.5 hPa Calm   2 mph /  3.2 km/h 76 % 0 in /  0.0 mm
23:02 49.8 °F /  9.9 °C 43 °F /  6.1 °C 30.1 in /  1018.5 hPa Calm   2 mph /  3.2 km/h 77 % 0 in /  0.0 mm
23:07 49.8 °F /  9.9 °C 43 °F /  6.1 °C 30.1 in /  1018.5 hPa Calm   1 mph /  1.6 km/h 77 % 0 in /  0.0 mm
23:12 49.8 °F /  9.9 °C 43 °F /  6.1 °C 30.1 in /  1018.5 hPa Calm   1 mph /  1.6 km/h 77 % 0 in /  0.0 mm
23:17 49.6 °F /  9.8 °C 42.8 °F /  6.0 °C 30.1 in /  1018.5 hPa Calm   1 mph /  1.6 km/h 77 % 0 in /  0.0 mm
23:27 49.5 °F /  9.7 °C 42.8 °F /  6.0 °C 30.1 in /  1018.5 hPa Calm   1 mph /  1.6 km/h 78 % 0 in /  0.0 mm
23:37 49.5 °F /  9.7 °C 42.6 °F /  5.9 °C 30.1 in /  1018.8 hPa Calm   1 mph /  1.6 km/h 77 % 0 in /  0.0 mm
23:42 49.5 °F /  9.7 °C 42.6 °F /  5.9 °C 30.1 in /  1018.8 hPa Calm   1 mph /  1.6 km/h 77 % 0 in /  0.0 mm
23:47 48.9 °F /  9.4 °C 42.4 °F /  5.8 °C 30.1 in /  1018.8 hPa Calm   1 mph /  1.6 km/h 78 % 0 in /  0.0 mm
23:52 48.9 °F /  9.4 °C 42.4 °F /  5.8 °C 30.1 in /  1018.8 hPa Calm   1 mph /  1.6 km/h 78 % 0 in /  0.0 mm
23:57 48.7 °F /  9.3 °C 42.3 °F /  5.7 °C 30.1 in /  1018.8 hPa Calm   1 mph /  1.6 km/h 78 % 0 in /  0.0 mm
Meteo18
Compliments of Weather Underground - 4 mb

Script developed by  Jim McMurry - jmcmurry@mwt.net Adapted for the template by  Wim van der Kuil - Leuven-Template.eu

You find our weather info also at:

European Weather Network

Weather Underground

Equipment we use:

Weather-station
Davis Vue

Weather-program
Meteohub

Weather-server
Raspberry PI 2 B+

Provider
1 and 1

Davis Vue

Meteohub

Raspberry PI 2 B+

1 and 1